Time;durP1;ratioP1;P1;durP2;ratioP2;P2;SDS_P1;SDS_P2;PMS_P1;PMS_P2;Temp;Humidity;BMP_temperature;BMP_pressure;BME280_temperature;BME280_humidity;BME280_pressure;Samples;Min_cycle;Max_cycle;Signal;HPM_P1;HPM_P2
2022/02/20 00:00:26;;;;;;;3.85;1.10;;;;;;;6.27;53.31;100065.91;4994039;28;20058;-72
2022/02/20 00:02:51;;;;;;;5.43;1.20;;;;;;;6.17;55.45;100065.88;4992091;28;20463;-72
2022/02/20 00:05:16;;;;;;;7.07;0.85;;;;;;;5.96;56.93;100066.66;4990001;28;20486;-73
2022/02/20 00:07:42;;;;;;;4.65;0.80;;;;;;;5.93;57.96;100049.16;4990636;28;20125;-72
2022/02/20 00:10:07;;;;;;;8.85;1.23;;;;;;;5.93;58.71;100046.53;4985154;28;20041;-73
2022/02/20 00:12:33;;;;;;;3.75;0.85;;;;;;;5.86;59.73;100047.34;4976800;28;20030;-72
2022/02/20 00:14:58;;;;;;;5.20;1.08;;;;;;;5.79;59.93;100024.63;4994143;28;20034;-72
2022/02/20 00:17:23;;;;;;;4.85;0.90;;;;;;;5.76;61.19;100028.09;4994013;28;20038;-72
2022/02/20 00:19:50;;;;;;;4.07;1.02;;;;;;;5.52;63.17;100023.59;4993742;28;20034;-72
2022/02/20 00:22:16;;;;;;;4.78;1.10;;;;;;;5.42;64.34;100024.41;4994111;28;20038;-72
2022/02/20 00:24:42;;;;;;;7.53;1.50;;;;;;;5.26;65.57;100031.28;4975235;28;20054;-71
2022/02/20 00:27:07;;;;;;;3.67;0.80;;;;;;;5.12;67.16;100020.72;4993957;28;20064;-72
2022/02/20 00:29:32;;;;;;;6.13;1.20;;;;;;;5.07;68.45;100021.53;4968721;28;20061;-72
2022/02/20 00:31:58;;;;;;;5.22;1.08;;;;;;;5.01;69.03;100017.16;4976248;28;20080;-72
2022/02/20 00:34:23;;;;;;;5.72;1.00;;;;;;;5.00;69.52;100015.38;4993878;28;20565;-72
2022/02/20 00:36:49;;;;;;;6.78;1.25;;;;;;;4.88;70.63;100017.91;4976212;28;20609;-72
2022/02/20 00:39:15;;;;;;;3.38;0.77;;;;;;;4.93;70.29;100005.75;4993628;28;20033;-72
2022/02/20 00:41:41;;;;;;;2.85;0.75;;;;;;;4.91;70.86;99992.66;4993741;28;20034;-72
2022/02/20 00:44:06;;;;;;;4.13;0.93;;;;;;;4.88;70.94;100000.47;4993515;28;20405;-72
2022/02/20 00:46:31;;;;;;;8.52;1.95;;;;;;;4.90;71.46;100001.38;4993424;28;20125;-72
2022/02/20 00:48:57;;;;;;;5.28;0.93;;;;;;;4.95;71.50;99977.84;4993128;28;20046;-72
2022/02/20 00:51:22;;;;;;;5.28;1.42;;;;;;;4.89;72.87;99972.59;4976013;28;20084;-72
2022/02/20 00:53:47;;;;;;;5.15;0.95;;;;;;;4.91;72.76;99968.25;4993473;28;20045;-72
2022/02/20 00:56:13;;;;;;;6.03;0.90;;;;;;;4.88;73.26;99952.53;4975944;28;20076;-72
2022/02/20 00:58:38;;;;;;;5.05;0.88;;;;;;;4.89;73.09;99954.28;4975137;28;20411;-72
2022/02/20 01:01:04;;;;;;;5.30;0.90;;;;;;;4.85;73.73;99950.78;4975181;28;20080;-72
2022/02/20 01:03:30;;;;;;;4.65;1.00;;;;;;;4.73;75.37;99941.06;4993260;28;20074;-72
2022/02/20 01:05:55;;;;;;;7.32;1.25;;;;;;;4.63;76.26;99933.16;4984496;28;20035;-72
2022/02/20 01:08:20;;;;;;;5.57;1.00;;;;;;;4.59;76.77;99917.44;4972999;28;20474;-72
2022/02/20 01:10:46;;;;;;;8.27;1.45;;;;;;;4.53;77.09;99913.91;4992873;28;20120;-73
2022/02/20 01:13:11;;;;;;;7.55;0.93;;;;;;;4.56;77.18;99900.88;4993091;28;20044;-72
2022/02/20 01:15:37;;;;;;;7.90;1.48;;;;;;;4.49;77.84;99907.78;4975452;28;20038;-72
2022/02/20 01:18:03;;;;;;;5.28;0.88;;;;;;;4.52;77.50;99897.34;4983198;28;20129;-72
2022/02/20 01:20:28;;;;;;;5.70;1.10;;;;;;;4.53;77.08;99891.28;4975237;28;20097;-72
2022/02/20 01:22:53;;;;;;;4.55;1.10;;;;;;;4.54;76.78;99885.19;4975338;28;20034;-72
2022/02/20 01:25:19;;;;;;;5.95;1.10;;;;;;;4.47;76.91;99885.97;4984150;28;20034;-72
2022/02/20 01:27:45;;;;;;;6.03;1.15;;;;;;;4.56;76.74;99883.47;4992808;28;20038;-71
2022/02/20 01:30:11;;;;;;;7.22;1.17;;;;;;;4.57;76.77;99879.97;4992259;28;20040;-72
2022/02/20 01:32:37;;;;;;;6.97;1.85;;;;;;;4.58;76.82;99886.97;4975307;28;20038;-71
2022/02/20 01:35:05;;;;;;;6.85;1.13;;;;;;;4.58;76.70;99873.91;4992183;28;20038;-72
2022/02/20 01:37:31;;;;;;;5.80;1.45;;;;;;;4.50;78.17;99864.22;4981545;28;20129;-72
2022/02/20 01:39:56;;;;;;;4.90;1.20;;;;;;;4.46;77.74;99863.34;4974722;28;20129;-72
2022/02/20 01:42:24;;;;;;;5.88;1.30;;;;;;;4.44;78.87;99859.84;4975113;28;20031;-73
2022/02/20 01:44:50;;;;;;;6.97;1.40;;;;;;;4.33;79.48;99859.75;4974792;28;20040;-72
2022/02/20 01:47:15;;;;;;;7.40;1.15;;;;;;;4.22;79.72;99848.34;4991583;28;20030;-72
2022/02/20 01:49:42;;;;;;;3.78;1.13;;;;;;;4.10;80.84;99851.72;4974665;28;20080;-73
2022/02/20 01:52:08;;;;;;;5.15;1.08;;;;;;;4.01;81.20;99841.19;4992357;28;20463;-72
2022/02/20 01:54:33;;;;;;;6.53;1.10;;;;;;;3.89;81.97;99838.47;4974814;28;20065;-71
2022/02/20 01:56:59;;;;;;;6.55;1.35;;;;;;;3.89;82.53;99823.66;4991288;28;20035;-73
2022/02/20 01:59:45;;;;;;;4.38;0.90;;;;;;;3.89;82.25;99828.88;4988788;28;20069;-72
2022/02/20 02:02:30;;;;;;;4.30;1.00;;;;;;;3.85;83.33;99816.69;4988678;28;20057;-73
2022/02/20 02:05:03;;;;;;;6.32;1.15;;;;;;;3.89;83.20;99812.34;4974782;28;20085;-73
2022/02/20 02:07:31;;;;;;;2.90;0.98;;;;;;;3.97;83.12;99807.19;4974600;28;20065;-73
2022/02/20 02:10:15;;;;;;;4.57;1.00;;;;;;;3.98;83.33;99795.88;4991593;28;20073;-72
2022/02/20 02:12:59;;;;;;;6.22;1.80;;;;;;;3.97;82.95;99788.94;4983688;28;20104;-73
2022/02/20 02:15:53;;;;;;;4.03;1.10;;;;;;;4.05;82.43;99777.69;4990284;28;20078;-72
2022/02/20 02:18:27;;;;;;;5.32;1.00;;;;;;;3.98;82.99;99769.78;4973779;28;20042;-73
2022/02/20 02:21:10;;;;;;;;;;;;;;;4.10;82.58;99772.50;4972305;28;20038;-73
2022/02/20 02:24:05;;;;;;;3.55;1.00;;;;;;;4.17;81.52;99753.41;4978613;28;19922;-73
2022/02/20 02:26:53;;;;;;;5.40;0.90;;;;;;;4.19;81.36;99754.28;4988982;28;20034;-72
2022/02/20 02:29:29;;;;;;;3.47;0.85;;;;;;;4.24;81.05;99742.13;4981512;28;20065;-72
2022/02/20 02:31:54;;;;;;;3.53;0.80;;;;;;;4.25;81.03;99736.06;4974331;28;20502;-72
2022/02/20 02:34:20;;;;;;;4.20;1.05;;;;;;;4.26;80.44;99731.69;4974440;28;20027;-73
2022/02/20 02:36:49;;;;;;;4.57;1.08;;;;;;;4.38;80.17;99732.66;4974612;28;20057;-72
2022/02/20 02:39:16;;;;;;;3.53;0.80;;;;;;;4.44;79.80;99728.31;4982459;28;20065;-72
2022/02/20 02:41:42;;;;;;;3.97;0.98;;;;;;;4.40;79.91;99724.81;4979863;28;20038;-72
2022/02/20 02:44:08;;;;;;;3.15;0.82;;;;;;;4.37;79.19;99723.03;4973307;28;20041;-72
2022/02/20 02:46:33;;;;;;;5.20;1.30;;;;;;;4.52;79.34;99719.66;4958000;28;20026;-73
2022/02/20 02:49:04;;;;;;;3.55;0.90;;;;;;;4.50;78.96;99708.31;4986588;28;20033;-72
2022/02/20 02:51:31;;;;;;;5.70;1.10;;;;;;;4.58;78.79;99706.63;4978075;28;20034;-73
2022/02/20 02:53:57;;;;;;;4.68;1.10;;;;;;;4.61;78.17;99698.81;4978228;28;20456;-73
2022/02/20 02:56:23;;;;;;;5.15;0.90;;;;;;;4.63;78.14;99697.94;4974610;28;20437;-72
2022/02/20 02:58:49;;;;;;;3.92;1.10;;;;;;;4.65;78.18;99691.84;4994847;28;20026;-72
2022/02/20 03:01:15;;;;;;;3.08;0.90;;;;;;;4.68;78.64;99686.63;4976953;28;20116;-72
2022/02/20 03:03:42;;;;;;;2.63;0.70;;;;;;;4.67;78.50;99679.66;4977914;28;20080;-73
2022/02/20 03:06:09;;;;;;;4.70;0.70;;;;;;;4.69;78.24;99677.03;4991788;28;20041;-72
2022/02/20 03:08:35;;;;;;;2.58;0.88;;;;;;;4.69;78.04;99674.41;4977514;28;20521;-73
2022/02/20 03:11:03;;;;;;;2.83;1.02;;;;;;;4.69;77.87;99672.72;4977831;28;20612;-73
2022/02/20 03:13:29;;;;;;;2.45;0.70;;;;;;;4.74;77.91;99670.97;4995317;28;20490;-73
2022/02/20 03:15:54;;;;;;;3.83;0.70;;;;;;;4.77;77.42;99672.75;4995379;28;20041;-72
2022/02/20 03:18:22;;;;;;;2.97;0.80;;;;;;;4.73;77.44;99664.00;4977190;28;20042;-73
2022/02/20 03:20:47;;;;;;;3.33;0.80;;;;;;;4.83;77.21;99663.16;4980447;28;20401;-72
2022/02/20 03:23:13;;;;;;;2.33;0.68;;;;;;;4.76;78.26;99657.91;4977610;28;20042;-73
2022/02/20 03:25:40;;;;;;;2.53;1.08;;;;;;;4.72;79.36;99672.72;4977689;28;20038;-72
2022/02/20 03:28:10;;;;;;;2.05;0.60;;;;;;;4.66;79.53;99656.97;4977678;28;20026;-73
2022/02/20 03:30:45;;;;;;;3.22;0.60;;;;;;;4.57;81.11;99664.81;4973747;28;20030;-72
2022/02/20 03:33:14;;;;;;;2.30;0.60;;;;;;;4.53;81.51;99644.75;4977355;28;20034;-73
2022/02/20 03:35:41;;;;;;;2.20;0.40;;;;;;;4.47;81.92;99645.59;4986191;28;20042;-73
2022/02/20 03:38:10;;;;;;;2.67;0.52;;;;;;;4.38;83.32;99645.56;4977358;28;20034;-73
2022/02/20 03:40:38;;;;;;;2.72;0.68;;;;;;;4.33;83.22;99642.94;4977098;28;20030;-73
2022/02/20 03:43:04;;;;;;;2.50;0.73;;;;;;;4.28;83.66;99638.56;4977199;28;20129;-73
2022/02/20 03:45:38;;;;;;;2.70;0.60;;;;;;;4.31;83.35;99651.63;4977235;28;20034;-72
2022/02/20 03:48:04;;;;;;;2.55;0.90;;;;;;;4.29;83.46;99646.38;4985936;28;20031;-72
2022/02/20 03:50:32;;;;;;;1.80;0.50;;;;;;;4.32;83.73;99654.25;4976771;28;20045;-73
2022/02/20 03:52:58;;;;;;;1.83;0.63;;;;;;;4.34;84.03;99644.66;4985193;28;20065;-73
2022/02/20 03:55:26;;;;;;;3.58;0.70;;;;;;;4.38;83.50;99637.72;4977097;28;20061;-73
2022/02/20 03:57:54;;;;;;;4.47;0.73;;;;;;;4.38;83.15;99635.97;4960889;28;20033;-73
2022/02/20 04:00:35;;;;;;;4.80;0.80;;;;;;;4.45;83.58;99634.25;4984100;28;20034;-73
2022/02/20 04:03:19;;;;;;;3.83;0.73;;;;;;;4.48;83.87;99629.06;4990392;28;20073;-73
2022/02/20 04:05:48;;;;;;;3.70;0.90;;;;;;;4.48;83.46;99652.59;4976842;28;20493;-73
2022/02/20 04:08:13;;;;;;;4.90;0.80;;;;;;;4.48;84.62;99633.41;4994320;28;20057;-73
2022/02/20 04:10:39;;;;;;;3.03;0.88;;;;;;;4.52;84.75;99643.88;4977764;28;20053;-73
2022/02/20 04:13:09;;;;;;;3.22;0.90;;;;;;;4.55;84.79;99645.63;4986092;28;20177;-74
2022/02/20 04:15:44;;;;;;;5.90;0.95;;;;;;;4.54;84.54;99646.50;4976747;28;20041;-73
2022/02/20 04:18:19;;;;;;;4.78;0.50;;;;;;;4.53;84.83;99660.41;4983452;28;20046;-73
2022/02/20 04:20:55;;;;;;;4.85;1.02;;;;;;;4.48;85.81;99651.69;4972098;28;20045;-73
2022/02/20 04:23:20;;;;;;;3.40;0.65;;;;;;;4.51;85.67;99649.13;4983655;28;20035;-74
2022/02/20 04:25:46;;;;;;;4.65;0.95;;;;;;;4.50;86.51;99656.06;4960296;28;20167;-74
2022/02/20 04:28:12;;;;;;;4.00;0.95;;;;;;;4.49;86.91;99654.31;4985167;28;20041;-74
2022/02/20 04:30:38;;;;;;;5.38;0.90;;;;;;;4.53;86.30;99647.34;4975887;28;20032;-74
2022/02/20 04:33:08;;;;;;;4.00;0.90;;;;;;;4.50;87.33;99655.19;4976545;28;20413;-74
2022/02/20 04:35:34;;;;;;;6.72;1.05;;;;;;;4.48;87.08;99656.91;4976138;28;20035;-74
2022/02/20 04:37:59;;;;;;;2.65;0.60;;;;;;;4.47;87.45;99665.63;4993687;28;20035;-73
2022/02/20 04:40:25;;;;;;;6.10;1.17;;;;;;;4.50;88.47;99656.06;4983364;28;20046;-74
2022/02/20 04:42:57;;;;;;;4.32;0.75;;;;;;;4.56;87.84;99681.38;4984951;28;20714;-73
2022/02/20 04:45:22;;;;;;;3.47;0.65;;;;;;;4.53;87.68;99681.31;4993598;28;20125;-74
2022/02/20 04:47:48;;;;;;;5.45;1.20;;;;;;;4.57;87.57;99683.09;4984139;28;20494;-74
2022/02/20 04:50:17;;;;;;;4.97;1.08;;;;;;;4.58;88.65;99695.28;4975488;28;20038;-73
2022/02/20 04:52:44;;;;;;;2.70;0.90;;;;;;;4.60;88.76;99689.19;4975932;28;20494;-74
2022/02/20 04:55:16;;;;;;;3.85;1.00;;;;;;;4.61;88.72;99692.69;4977244;28;20022;-73
2022/02/20 04:57:42;;;;;;;3.53;0.80;;;;;;;4.60;88.83;99693.56;4976017;28;20065;-74
2022/02/20 05:00:16;;;;;;;3.33;1.00;;;;;;;4.61;88.85;99687.44;4984248;28;20031;-74
2022/02/20 05:03:02;;;;;;;3.10;1.17;;;;;;;4.65;88.29;99691.84;4991703;28;20057;-74
2022/02/20 05:05:45;;;;;;;5.43;1.05;;;;;;;4.69;87.68;99703.16;4991652;28;20053;-74
2022/02/20 05:08:11;;;;;;;8.43;1.33;;;;;;;4.71;88.15;99702.31;4975765;28;20089;-74
2022/02/20 05:10:37;;;;;;;4.60;1.08;;;;;;;4.75;88.07;99709.31;4974584;28;20556;-74
2022/02/20 05:13:04;;;;;;;3.13;0.88;;;;;;;4.79;88.02;99721.53;4975601;28;20057;-72
2022/02/20 05:15:29;;;;;;;7.00;1.00;;;;;;;4.79;88.22;99724.16;4975623;28;20128;-74
2022/02/20 05:17:58;;;;;;;4.70;1.10;;;;;;;4.76;89.24;99726.72;4975587;28;20057;-73
2022/02/20 05:20:23;;;;;;;5.55;1.10;;;;;;;4.78;90.04;99725.00;4968378;28;20034;-74
2022/02/20 05:22:52;;;;;;;4.05;0.82;;;;;;;4.79;90.13;99720.66;4975329;28;20049;-75
2022/02/20 05:25:18;;;;;;;6.57;1.38;;;;;;;4.82;89.91;99718.94;4975346;28;20030;-74
2022/02/20 05:27:47;;;;;;;7.18;1.50;;;;;;;4.90;89.02;99725.91;4975218;28;20120;-74
2022/02/20 05:30:16;;;;;;;5.32;1.33;;;;;;;4.95;88.54;99727.72;4974948;28;20126;-74
2022/02/20 05:32:43;;;;;;;6.68;1.58;;;;;;;5.00;88.25;99732.94;4959265;28;20046;-73
2022/02/20 05:35:21;;;;;;;4.25;1.20;;;;;;;5.03;88.09;99752.16;4982775;28;20118;-73
2022/02/20 05:37:49;;;;;;;4.97;1.23;;;;;;;5.09;88.32;99725.13;4981876;28;20030;-74
2022/02/20 05:40:19;;;;;;;4.07;1.05;;;;;;;5.15;87.24;99734.72;4974706;28;20168;-74
2022/02/20 05:42:57;;;;;;;7.47;1.25;;;;;;;5.21;86.78;99737.34;4971598;28;20030;-72
2022/02/20 05:45:26;;;;;;;6.25;1.70;;;;;;;5.24;86.55;99748.72;4966561;28;20031;-73
2022/02/20 05:47:54;;;;;;;3.42;1.25;;;;;;;5.28;85.96;99747.84;4974571;28;20038;-75
2022/02/20 05:50:22;;;;;;;4.28;1.45;;;;;;;5.38;85.82;99755.72;4974328;28;20046;-74
2022/02/20 05:52:48;;;;;;;4.90;1.33;;;;;;;5.46;85.19;99756.63;4979070;28;20061;-74
2022/02/20 05:55:16;;;;;;;4.45;1.52;;;;;;;5.56;84.39;99765.38;4972171;28;20041;-73
2022/02/20 05:57:47;;;;;;;4.05;1.35;;;;;;;5.62;84.42;99761.00;4991989;28;20401;-74
2022/02/20 06:00:18;;;;;;;5.13;1.30;;;;;;;5.78;83.21;99779.34;4966801;28;20572;-74
2022/02/20 06:03:01;;;;;;;4.80;1.20;;;;;;;5.82;82.11;99762.78;4986587;28;20030;-74
2022/02/20 06:05:35;;;;;;;4.28;1.20;;;;;;;5.88;82.54;99781.97;4987933;28;20508;-74
2022/02/20 06:08:20;;;;;;;7.80;1.48;;;;;;;5.93;81.53;99800.31;4985987;28;20619;-74
2022/02/20 06:10:52;;;;;;;3.60;1.20;;;;;;;5.95;81.74;99798.63;4972958;28;20041;-74
2022/02/20 06:13:49;;;;;;;4.03;1.25;;;;;;;5.96;81.74;99800.34;4972210;28;20049;-74
2022/02/20 06:19:22;;;;;;;2.80;1.08;;;;;;;5.88;82.34;99823.03;4937439;28;20095;-75
2022/02/20 06:22:17;;;;;;;5.18;1.40;;;;;;;5.80;83.01;99809.03;4938274;28;20083;-75
2022/02/20 06:24:45;;;;;;;5.63;1.52;;;;;;;5.81;82.58;99829.09;4951601;29;20467;-75
2022/02/20 06:27:29;;;;;;;3.45;0.85;;;;;;;5.89;82.08;99824.75;4950977;29;20054;-75
2022/02/20 06:29:55;;;;;;;4.43;1.55;;;;;;;5.83;82.01;99820.38;4950200;28;20049;-75
2022/02/20 06:32:21;;;;;;;3.22;1.08;;;;;;;5.87;81.47;99829.13;4966137;28;20039;-75
2022/02/20 06:34:46;;;;;;;4.65;1.30;;;;;;;5.92;80.93;99838.75;4952749;28;20031;-75
2022/02/20 06:37:14;;;;;;;3.67;1.27;;;;;;;6.01;79.92;99844.91;4967516;28;20458;-75
2022/02/20 06:42:54;;;;;;;4.70;1.10;;;;;;;6.05;79.02;99852.78;5518836;23;20124;-75
2022/02/20 06:45:22;;;;;;;6.68;1.70;;;;;;;6.17;78.80;99861.50;4985037;28;20453;-76
2022/02/20 06:48:19;;;;;;;3.88;1.50;;;;;;;6.19;77.04;99871.13;4987227;28;20425;-78
2022/02/20 06:51:09;;;;;;;4.18;1.20;;;;;;;6.23;77.55;99867.63;4986973;28;20476;-74
2022/02/20 06:54:10;;;;;;;5.22;1.17;;;;;;;6.31;75.97;99872.84;4896619;29;20044;-75
2022/02/20 06:56:43;;;;;;;3.80;1.38;;;;;;;6.30;76.79;99881.59;4940457;28;20053;-75
2022/02/20 06:59:09;;;;;;;6.75;2.00;;;;;;;6.35;75.88;99877.25;4971896;28;20039;-75
2022/02/20 07:01:34;;;;;;;4.97;2.13;;;;;;;6.26;75.67;99890.31;4969449;28;20031;-75
2022/02/20 07:03:59;;;;;;;3.72;1.42;;;;;;;6.24;74.60;99905.19;4970190;28;20054;-75
2022/02/20 07:06:25;;;;;;;3.80;1.08;;;;;;;6.37;74.75;99896.47;4954295;28;20035;-75
2022/02/20 07:11:57;;;;;;;4.20;1.00;;;;;;;6.41;73.05;99905.19;5522037;23;20046;-73
2022/02/20 07:14:22;;;;;;;3.90;1.20;;;;;;;6.41;71.51;99934.91;5003497;28;20685;-74
2022/02/20 07:16:49;;;;;;;5.82;1.13;;;;;;;6.54;71.95;99915.69;5006540;28;20567;-73
2022/02/20 07:19:14;;;;;;;4.97;1.05;;;;;;;6.44;72.50;99952.38;4989806;28;20101;-74
2022/02/20 07:21:39;;;;;;;8.25;1.10;;;;;;;6.50;71.88;99913.09;5006103;28;20065;-74
2022/02/20 07:24:05;;;;;;;3.38;0.77;;;;;;;6.54;72.16;99920.94;4999499;28;20041;-75
2022/02/20 07:26:32;;;;;;;4.22;1.15;;;;;;;6.52;71.48;99927.94;5000319;28;20079;-75
2022/02/20 07:28:58;;;;;;;6.88;1.45;;;;;;;6.50;71.25;99928.81;5005993;28;20049;-75
2022/02/20 07:31:26;;;;;;;4.95;1.05;;;;;;;6.61;70.71;99932.31;4998793;28;20042;-75
2022/02/20 07:33:54;;;;;;;4.93;1.10;;;;;;;6.61;70.61;99932.31;5009217;28;20026;-75
2022/02/20 07:36:19;;;;;;;6.13;1.40;;;;;;;6.73;69.79;99947.16;5003841;28;20074;-75
2022/02/20 07:45:23;;;;;;;8.60;1.38;;;;;;;6.90;68.35;99961.16;4990937;28;20148;-75
2022/02/20 07:47:52;;;;;;;6.30;1.50;;;;;;;6.91;67.84;100010.09;4991825;28;20047;-75
2022/02/20 07:50:19;;;;;;;3.83;1.30;;;;;;;6.92;67.86;99964.66;4986122;28;20049;-75
2022/02/20 07:52:45;;;;;;;4.28;1.33;;;;;;;6.90;67.39;100003.13;4991599;28;20121;-75
2022/02/20 07:55:10;;;;;;;3.08;1.02;;;;;;;7.03;67.39;99980.38;4993125;28;20504;-75
2022/02/20 07:57:36;;;;;;;4.88;2.00;;;;;;;7.08;67.36;99980.41;4982522;28;20117;-75
2022/02/20 08:00:03;;;;;;;4.97;1.50;;;;;;;7.08;66.73;99983.03;4990591;28;20125;-75
2022/02/20 08:02:37;;;;;;;6.20;1.50;;;;;;;7.08;65.97;99985.66;4989768;28;20042;-75
2022/02/20 08:05:04;;;;;;;3.05;1.10;;;;;;;7.13;64.36;99978.66;4992966;28;20045;-75
2022/02/20 08:07:29;;;;;;;4.57;1.20;;;;;;;7.23;65.15;99969.84;4984453;28;20042;-75
2022/02/20 08:09:55;;;;;;;7.55;1.35;;;;;;;7.28;64.36;99973.34;4988339;28;20561;-75
2022/02/20 08:15:07;;;;;;;7.20;1.50;;;;;;;7.25;63.66;100002.22;4974155;28;20552;-74
2022/02/20 08:17:33;;;;;;;4.20;1.10;;;;;;;7.19;64.49;99995.25;4952200;28;992729;-74
2022/02/20 08:19:58;;;;;;;4.93;1.30;;;;;;;7.11;65.35;99999.63;4992220;28;20054;-74
2022/02/20 08:22:24;;;;;;;5.93;1.20;;;;;;;7.17;65.28;99996.13;4992918;28;20042;-74
2022/02/20 08:24:50;;;;;;;4.80;1.10;;;;;;;7.23;65.33;100002.25;4985311;28;20035;-74
2022/02/20 08:27:15;;;;;;;6.30;1.25;;;;;;;7.30;64.12;100004.84;4978929;28;20398;-75
2022/02/20 08:29:41;;;;;;;7.10;1.25;;;;;;;7.34;64.76;100010.09;4959587;28;20030;-74
2022/02/20 08:32:08;;;;;;;8.20;2.28;;;;;;;7.40;65.16;100012.72;4978954;28;20042;-75
2022/02/20 08:34:34;;;;;;;4.88;1.27;;;;;;;7.56;64.97;100020.56;4975558;28;20383;-74
2022/02/20 08:37:00;;;;;;;6.53;1.55;;;;;;;7.52;64.93;100010.94;4972340;28;20038;-74
2022/02/20 08:42:09;;;;;;;4.90;1.70;;;;;;;7.59;64.44;100004.78;5522004;23;20042;-75
2022/02/20 08:44:36;;;;;;;6.15;1.83;;;;;;;7.70;63.99;100029.28;5005159;28;20896;-75
2022/02/20 08:47:02;;;;;;;7.90;1.50;;;;;;;7.72;63.69;100019.66;5006193;28;20050;-74
2022/02/20 08:49:27;;;;;;;4.07;1.35;;;;;;;7.63;62.32;100027.56;5001704;28;20115;-74
2022/02/20 08:51:53;;;;;;;5.85;1.75;;;;;;;7.71;63.69;100031.03;5002872;28;20042;-75
2022/02/20 08:54:18;;;;;;;5.03;1.05;;;;;;;7.65;62.38;100080.94;5002431;28;20045;-75
2022/02/20 08:56:43;;;;;;;5.25;1.42;;;;;;;7.72;62.69;100031.91;5003329;28;20046;-75
2022/02/20 08:59:09;;;;;;;4.88;1.20;;;;;;;7.72;61.93;100029.28;5007937;28;20049;-75
2022/02/20 09:01:35;;;;;;;7.28;1.30;;;;;;;7.85;62.55;100039.75;4994202;28;20045;-75
2022/02/20 09:04:03;;;;;;;5.53;1.30;;;;;;;7.83;61.57;100036.28;4985337;28;20072;-74
2022/02/20 09:06:29;;;;;;;4.35;1.05;;;;;;;7.87;62.24;100038.00;5006634;28;20095;-74
2022/02/20 09:08:55;;;;;;;5.10;1.08;;;;;;;8.01;61.63;100032.69;5004582;28;20030;-74
2022/02/20 09:11:21;;;;;;;3.65;0.98;;;;;;;8.01;60.60;100032.69;4999802;28;20081;-74
2022/02/20 09:13:46;;;;;;;6.95;1.60;;;;;;;8.03;59.31;100040.56;5005162;28;20445;-74
2022/02/20 09:16:11;;;;;;;3.75;1.20;;;;;;;8.13;60.12;100030.00;5004993;28;20041;-74
2022/02/20 09:18:37;;;;;;;5.43;1.52;;;;;;;8.17;59.95;100041.38;5002851;28;20131;-74
2022/02/20 09:21:03;;;;;;;6.95;1.38;;;;;;;8.38;60.18;100050.06;4994440;28;20037;-74
2022/02/20 09:23:28;;;;;;;4.53;1.23;;;;;;;8.30;58.33;100053.59;5003252;28;20046;-74
2022/02/20 09:25:53;;;;;;;5.10;1.27;;;;;;;8.25;59.62;100042.25;4983740;28;20043;-74
2022/02/20 09:28:18;;;;;;;3.58;1.15;;;;;;;8.33;59.85;100044.81;5007185;28;20041;-74
2022/02/20 09:30:44;;;;;;;5.40;1.40;;;;;;;8.39;58.49;100047.47;5005745;28;20057;-74
2022/02/20 09:33:09;;;;;;;6.00;1.33;;;;;;;8.33;58.52;100043.09;5002745;28;20038;-74
2022/02/20 09:35:35;;;;;;;4.40;1.20;;;;;;;8.33;58.14;100056.22;5001853;28;20047;-74
2022/02/20 09:38:01;;;;;;;6.97;1.15;;;;;;;8.23;57.83;100046.63;5001311;28;20041;-74
2022/02/20 09:40:27;;;;;;;3.75;1.17;;;;;;;8.41;57.71;100050.06;4986287;28;20034;-74
2022/02/20 09:42:53;;;;;;;5.63;1.23;;;;;;;8.35;57.49;100057.06;5002456;28;20555;-74
2022/02/20 09:45:18;;;;;;;5.07;0.98;;;;;;;8.39;57.17;100039.56;5003678;28;20113;-74
2022/02/20 09:47:44;;;;;;;6.70;1.67;;;;;;;8.49;57.17;100038.66;4983767;28;20543;-74
2022/02/20 09:50:10;;;;;;;8.35;1.33;;;;;;;8.55;56.26;100058.78;5003091;28;20042;-74
2022/02/20 09:52:35;;;;;;;4.85;1.38;;;;;;;8.35;56.83;100038.66;4981994;28;20387;-74
2022/02/20 09:55:01;;;;;;;3.72;1.35;;;;;;;8.41;56.22;100047.44;5002369;28;20038;-74
2022/02/20 09:57:26;;;;;;;4.03;1.30;;;;;;;8.54;57.21;100036.88;5000366;28;20041;-74
2022/02/20 09:59:52;;;;;;;3.90;1.40;;;;;;;8.57;55.94;100041.25;5001734;28;20064;-74
2022/02/20 10:02:19;;;;;;;3.70;0.93;;;;;;;8.62;57.81;100043.81;5002085;28;20042;-74
2022/02/20 10:04:47;;;;;;;2.97;1.20;;;;;;;8.82;57.00;100051.59;5002066;28;20160;-74
2022/02/20 10:07:26;;;;;;;2.85;0.90;;;;;;;8.98;57.02;100037.44;5000552;28;20116;-73
2022/02/20 10:09:52;;;;;;;5.05;1.20;;;;;;;8.96;55.81;100036.56;5011280;28;20072;-74
2022/02/20 10:12:22;;;;;;;6.32;1.92;;;;;;;8.81;55.78;100061.25;5004323;28;20048;-74
2022/02/20 10:14:48;;;;;;;4.65;1.20;;;;;;;8.84;56.78;100034.91;5013784;28;20022;-74
2022/02/20 10:17:16;;;;;;;3.67;1.00;;;;;;;8.83;56.62;100032.28;5006355;28;20032;-74
2022/02/20 10:20:04;;;;;;;4.63;1.10;;;;;;;8.98;56.10;100024.28;5004370;28;20087;-74
2022/02/20 10:22:48;;;;;;;5.13;1.60;;;;;;;8.93;57.05;100036.59;5002535;28;20045;-74
2022/02/20 10:25:32;;;;;;;3.60;1.20;;;;;;;8.91;56.23;100019.97;5001992;28;20120;-74
2022/02/20 10:28:36;;;;;;;2.97;0.95;;;;;;;9.04;56.67;100016.34;5006035;28;20050;-73
2022/02/20 10:31:04;;;;;;;4.90;1.30;;;;;;;9.14;57.08;100020.66;4993360;28;20509;-74
2022/02/20 10:33:30;;;;;;;8.27;1.35;;;;;;;9.09;56.20;100014.56;4981439;28;20064;-74
2022/02/20 10:35:55;;;;;;;5.80;1.00;;;;;;;9.06;57.13;100001.41;4999878;28;20030;-74
2022/02/20 10:38:23;;;;;;;5.80;1.48;;;;;;;9.34;55.99;100016.97;4975400;28;20525;-74
2022/02/20 10:40:53;;;;;;;4.45;1.95;;;;;;;9.22;56.32;100015.28;5002205;28;20034;-73
2022/02/20 10:43:29;;;;;;;5.05;1.10;;;;;;;9.19;56.42;100004.78;4983554;28;20038;-73
2022/02/20 10:46:13;;;;;;;4.68;1.20;;;;;;;9.34;56.99;100006.44;5004003;28;20026;-73
2022/02/20 10:48:39;;;;;;;4.85;1.33;;;;;;;9.34;56.88;99996.75;5008583;28;20084;-74
2022/02/20 10:51:05;;;;;;;8.07;1.75;;;;;;;9.23;57.65;100022.34;5010561;28;20457;-74
2022/02/20 10:53:31;;;;;;;4.97;1.48;;;;;;;9.13;57.44;99974.13;5009098;28;20109;-74
2022/02/20 10:55:59;;;;;;;9.68;2.08;;;;;;;9.13;58.34;100008.34;5005916;28;20030;-74
2022/02/20 10:58:27;;;;;;;3.88;1.50;;;;;;;9.12;58.83;99988.19;5007637;28;20046;-74
2022/02/20 11:00:58;;;;;;;5.45;1.48;;;;;;;8.99;59.43;99976.03;5009014;28;20041;-74
2022/02/20 11:03:26;;;;;;;6.05;2.05;;;;;;;8.77;61.05;99997.22;5003360;28;20123;-73
2022/02/20 11:05:53;;;;;;;5.93;1.45;;;;;;;8.58;63.42;99993.00;5009973;28;20100;-74
2022/02/20 11:08:20;;;;;;;5.90;2.30;;;;;;;8.15;67.44;99990.59;5009705;28;20041;-73
2022/02/20 11:10:47;;;;;;;8.13;1.33;;;;;;;8.07;67.53;99966.09;5004030;28;20437;-73
2022/02/20 11:13:13;;;;;;;7.00;1.52;;;;;;;7.98;68.16;99967.00;5004717;28;20045;-74
2022/02/20 11:15:40;;;;;;;8.88;1.98;;;;;;;7.86;69.74;99954.81;5005874;28;20433;-73
2022/02/20 11:18:08;;;;;;;3.92;1.35;;;;;;;7.70;70.91;99950.47;5006248;28;20038;-74
2022/02/20 11:20:35;;;;;;;6.03;1.60;;;;;;;7.53;73.01;99942.66;5004004;28;20034;-74
2022/02/20 11:23:03;;;;;;;9.95;1.55;;;;;;;7.49;73.03;99935.66;4986615;28;20040;-74
2022/02/20 11:25:32;;;;;;;4.93;1.40;;;;;;;7.43;74.43;99933.06;5006189;28;20042;-74
2022/02/20 11:28:00;;;;;;;6.50;1.50;;;;;;;7.34;75.08;99927.88;5003746;28;20415;-73
2022/02/20 11:30:26;;;;;;;9.50;1.58;;;;;;;7.34;76.22;99925.25;5004469;28;20041;-73
2022/02/20 11:32:54;;;;;;;3.70;1.40;;;;;;;7.35;76.27;99919.97;5005588;28;20038;-73
2022/02/20 11:35:20;;;;;;;6.93;2.00;;;;;;;7.40;76.31;99915.56;5003026;28;20073;-73
2022/02/20 11:37:50;;;;;;;11.25;1.58;;;;;;;7.42;76.71;99916.44;5006227;28;20061;-73
2022/02/20 11:40:16;;;;;;;9.80;1.40;;;;;;;7.36;75.46;99907.72;5003672;28;20038;-74
2022/02/20 11:43:00;;;;;;;4.80;1.38;;;;;;;7.33;76.90;99892.84;5005215;28;20046;-74
2022/02/20 11:45:27;;;;;;;5.88;1.17;;;;;;;7.44;76.86;99888.44;5003098;28;20034;-74
2022/02/20 11:48:05;;;;;;;4.88;1.20;;;;;;;7.50;77.91;99878.81;5005763;28;20507;-74
2022/02/20 11:50:36;;;;;;;5.95;1.48;;;;;;;7.48;77.29;99876.16;5005413;28;20129;-74
2022/02/20 11:53:07;;;;;;;6.18;1.20;;;;;;;7.47;77.20;99872.69;5005367;28;20420;-74
2022/02/20 11:55:43;;;;;;;5.72;1.50;;;;;;;7.39;78.38;99866.59;5004699;28;20100;-73
2022/02/20 11:58:13;;;;;;;8.35;1.50;;;;;;;7.43;78.68;99867.44;5005607;28;20068;-74
2022/02/20 12:00:39;;;;;;;6.47;1.80;;;;;;;7.41;79.05;99856.06;5004404;28;20519;-74
2022/02/20 12:03:17;;;;;;;8.40;2.17;;;;;;;7.49;79.80;99850.78;5002561;28;20034;-74
2022/02/20 12:06:08;;;;;;;8.85;1.70;;;;;;;7.51;79.18;99844.63;5005560;28;20053;-74
2022/02/20 12:08:56;;;;;;;7.55;2.00;;;;;;;7.48;80.08;99839.41;5005172;28;20113;-74